createdAt,value
2019-03-28T00:01:07.404Z,97065.52
2019-03-28T00:06:04.384Z,97071.13
2019-03-28T00:11:01.401Z,97078.08
2019-03-28T00:15:58.419Z,97080.57
2019-03-28T00:20:55.894Z,97075.81
2019-03-28T00:25:52.963Z,97070.03
2019-03-28T00:30:50.076Z,97075.55
2019-03-28T00:35:47.140Z,97069.66
2019-03-28T00:40:44.282Z,97072.92
2019-03-28T00:45:44.409Z,97063.78
2019-03-28T00:50:40.233Z,97060.77
2019-03-28T00:55:37.414Z,97060.39
2019-03-28T01:00:35.018Z,97050.53
2019-03-28T01:05:32.054Z,97055.22
2019-03-28T01:10:32.109Z,97050.05
2019-03-28T01:15:29.095Z,97055.27
2019-03-28T01:20:26.495Z,97043.36
2019-03-28T01:25:23.491Z,97038.20
2019-03-28T01:30:20.551Z,97031.09
2019-03-28T01:35:17.603Z,97036.51
2019-03-28T01:40:14.602Z,97029.66
2019-03-28T01:45:11.745Z,97023.42
2019-03-28T01:50:09.088Z,97023.94
2019-03-28T01:55:06.804Z,97025.38
2019-03-28T02:00:09.321Z,97028.41
2019-03-28T02:05:06.989Z,97021.78
2019-03-28T02:10:05.850Z,97027.42
2019-03-28T02:15:06.196Z,97026.33
2019-03-28T02:20:06.665Z,97015.00
2019-03-28T02:25:06.752Z,97013.51
2019-03-28T02:30:07.170Z,97014.90
2019-03-28T02:35:04.998Z,97017.06
2019-03-28T02:40:03.301Z,96982.34
2019-03-28T02:45:00.664Z,97006.58
2019-03-28T02:49:57.716Z,97003.53
2019-03-28T02:54:54.822Z,97009.41
2019-03-28T02:59:52.379Z,97008.67
2019-03-28T03:04:49.495Z,97003.82
2019-03-28T03:09:46.617Z,97004.88
2019-03-28T03:14:45.891Z,97010.98
2019-03-28T03:19:42.934Z,97009.02
2019-03-28T03:24:41.846Z,97010.20
2019-03-28T03:29:38.955Z,97002.56
2019-03-28T03:34:35.998Z,97010.20
2019-03-28T03:39:33.102Z,97006.95
2019-03-28T03:44:30.181Z,97007.05
2019-03-28T03:49:27.257Z,97006.91
2019-03-28T03:54:24.345Z,97008.63
2019-03-28T03:59:22.490Z,97006.37
2019-03-28T04:04:19.610Z,97007.08
2019-03-28T04:09:17.533Z,96994.36
2019-03-28T04:14:14.732Z,96997.56
2019-03-28T04:19:12.077Z,96996.92
2019-03-28T04:24:11.008Z,97008.92
2019-03-28T04:29:10.233Z,97009.42
2019-03-28T04:34:08.817Z,97009.70
2019-03-28T04:39:06.333Z,97008.88
2019-03-28T04:44:04.540Z,97008.47
2019-03-28T04:49:01.714Z,97006.27
2019-03-28T04:53:59.013Z,96999.63
2019-03-28T04:59:00.271Z,97002.84
2019-03-28T05:03:57.541Z,97008.75
2019-03-28T05:08:54.837Z,97012.77
2019-03-28T05:13:53.937Z,97003.41
2019-03-28T05:18:52.486Z,97013.02
2019-03-28T05:23:52.587Z,97006.73
2019-03-28T05:28:57.406Z,97002.75
2019-03-28T05:33:48.672Z,97006.44
2019-03-28T05:38:46.280Z,97004.31
2019-03-28T05:43:45.498Z,97002.64
2019-03-28T05:48:43.415Z,97000.03
2019-03-28T05:53:40.509Z,97002.70
2019-03-28T05:58:38.152Z,97003.52
2019-03-28T06:03:36.091Z,97003.10
2019-03-28T06:08:33.211Z,97003.54
2019-03-28T06:13:33.253Z,96996.36
2019-03-28T06:18:33.212Z,96991.28
2019-03-28T06:23:30.340Z,96999.84
2019-03-28T06:28:27.436Z,96997.30
2019-03-28T06:33:24.596Z,97001.70
2019-03-28T06:38:21.861Z,97001.52
2019-03-28T06:43:20.994Z,97002.20
2019-03-28T06:48:20.597Z,97002.67
2019-03-28T06:53:17.644Z,97004.11
2019-03-28T06:58:21.128Z,97015.89
2019-03-28T07:03:20.061Z,97009.61
2019-03-28T07:08:17.471Z,97011.98
2019-03-28T07:13:16.332Z,97015.87
2019-03-28T07:18:13.347Z,97012.48
2019-03-28T07:23:16.515Z,97015.94
2019-03-28T07:28:13.753Z,97014.38
2019-03-28T07:33:10.897Z,97018.49
2019-03-28T07:38:08.673Z,97011.45
2019-03-28T07:43:08.372Z,97015.50
2019-03-28T07:48:05.742Z,97026.05
2019-03-28T07:53:04.813Z,97022.73
2019-03-28T07:58:01.958Z,97026.70
2019-03-28T08:03:03.597Z,97028.50
2019-03-28T08:07:58.153Z,97035.52
2019-03-28T08:12:55.269Z,97041.81
2019-03-28T08:17:52.311Z,97038.47
2019-03-28T08:22:49.872Z,97045.11
2019-03-28T08:27:48.263Z,97049.75
2019-03-28T08:32:47.951Z,97050.94
2019-03-28T08:37:45.301Z,97055.31
2019-03-28T08:42:42.461Z,97050.83
2019-03-28T08:47:39.527Z,97052.14
2019-03-28T08:52:38.773Z,97062.75
2019-03-28T08:57:37.733Z,97065.16
2019-03-28T09:02:38.072Z,97067.06
2019-03-28T09:07:41.622Z,97075.48
2019-03-28T09:12:38.936Z,97079.59
2019-03-28T09:17:36.130Z,97082.95
2019-03-28T09:22:38.916Z,97076.16
2019-03-28T09:27:41.318Z,97085.38
2019-03-28T09:32:38.638Z,97085.77
2019-03-28T09:37:35.722Z,97087.42
2019-03-28T09:42:32.899Z,97105.73
2019-03-28T09:47:31.205Z,97105.43
2019-03-28T09:52:30.336Z,97108.61
2019-03-28T09:57:27.640Z,97098.06
2019-03-28T10:02:26.650Z,97101.97
2019-03-28T10:07:25.727Z,97100.35
2019-03-28T10:12:24.758Z,97102.42
2019-03-28T10:17:59.202Z,97094.44
2019-03-28T10:23:28.131Z,97077.80
2019-03-28T10:28:34.612Z,97098.06
2019-03-28T10:33:33.180Z,97114.86
2019-03-28T10:38:30.356Z,97098.94
2019-03-28T10:43:30.147Z,97106.33
2019-03-28T10:48:27.517Z,97114.34
2019-03-28T10:53:29.839Z,97107.54
2019-03-28T10:58:26.719Z,97098.06
2019-03-28T11:03:24.819Z,97105.42
2019-03-28T11:08:22.031Z,97109.52
2019-03-28T11:13:19.244Z,97105.42
2019-03-28T11:18:17.235Z,97107.53
2019-03-28T11:23:25.542Z,97113.75
2019-03-28T11:28:23.520Z,97121.84
2019-03-28T11:33:26.141Z,97116.12
2019-03-28T11:38:29.675Z,97111.24
2019-03-28T11:49:24.491Z,97102.84
2019-03-28T11:54:41.514Z,97095.08
2019-03-28T11:59:40.528Z,97109.66
2019-03-28T12:04:38.857Z,97093.27
2019-03-28T12:09:36.041Z,97106.26
2019-03-28T12:14:38.657Z,97109.12
2019-03-28T12:19:42.851Z,97102.53
2019-03-28T12:24:40.015Z,97099.41
2019-03-28T12:29:36.990Z,97091.36
2019-03-28T12:34:37.357Z,97093.92
2019-03-28T12:39:35.227Z,97091.67
2019-03-28T12:44:32.489Z,97087.92
2019-03-28T12:49:29.607Z,97092.80
2019-03-28T12:54:26.797Z,97088.68
2019-03-28T12:59:23.898Z,97083.92
2019-03-28T13:04:21.321Z,97089.53
2019-03-28T13:09:18.314Z,97081.80
2019-03-28T13:14:15.393Z,97079.96
2019-03-28T13:19:17.431Z,97077.09
2019-03-28T13:24:14.550Z,97073.20
2019-03-28T13:29:14.252Z,97068.89
2019-03-28T13:34:14.437Z,97074.95
2019-03-28T13:39:11.547Z,97062.08
2019-03-28T13:44:12.254Z,97080.84
2019-03-28T13:49:08.867Z,97064.27
2019-03-28T13:54:06.148Z,97073.97
2019-03-28T13:59:03.885Z,97062.41
2019-03-28T14:04:02.793Z,97061.39
2019-03-28T14:09:01.814Z,97060.88
2019-03-28T14:14:03.869Z,97057.17
2019-03-28T14:19:05.188Z,97051.97
2019-03-28T14:24:17.039Z,97051.63
2019-03-28T14:29:14.175Z,97059.02
2019-03-28T14:34:13.105Z,97064.00
2019-03-28T14:39:10.213Z,97069.35
2019-03-28T14:44:07.351Z,97061.64
2019-03-28T14:49:05.540Z,97059.64
2019-03-28T14:54:02.621Z,97061.14
2019-03-28T14:59:00.471Z,97056.29
2019-03-28T15:04:00.285Z,97065.70
2019-03-28T15:08:57.755Z,97076.27
2019-03-28T15:13:54.767Z,97070.41
2019-03-28T15:18:53.000Z,97071.73
2019-03-28T15:23:50.020Z,97063.75
2019-03-28T15:28:47.084Z,97060.02
2019-03-28T15:33:44.133Z,97065.16
2019-03-28T15:38:41.279Z,97075.42
2019-03-28T15:43:38.349Z,97076.97
2019-03-28T15:48:35.685Z,97083.31
2019-03-28T15:53:33.256Z,97085.98
2019-03-28T15:58:32.573Z,97096.56
2019-03-28T16:03:29.684Z,97093.39
2019-03-28T16:08:27.784Z,97106.82
2019-03-28T16:13:25.129Z,97097.09
2019-03-28T16:18:22.198Z,97096.95
2019-03-28T16:23:19.307Z,97110.53
2019-03-28T16:28:16.442Z,97115.34
2019-03-28T16:33:13.469Z,97112.13
2019-03-28T16:38:10.743Z,97127.37
2019-03-28T16:43:07.813Z,97121.48
2019-03-28T16:48:04.904Z,97127.17
2019-03-28T16:53:01.985Z,97136.64
2019-03-28T16:57:59.147Z,97139.06
2019-03-28T17:02:56.177Z,97144.52
2019-03-28T17:07:53.481Z,97149.28
2019-03-28T17:12:50.486Z,97153.36
2019-03-28T17:17:47.602Z,97152.90
2019-03-28T17:22:44.572Z,97154.56
2019-03-28T17:27:41.719Z,97156.30
2019-03-28T17:32:38.881Z,97158.95
2019-03-28T17:37:36.417Z,97162.05
2019-03-28T17:42:33.790Z,97162.46
2019-03-28T17:47:30.868Z,97171.88
2019-03-28T17:52:28.027Z,97168.92
2019-03-28T17:57:25.090Z,97180.78
2019-03-28T18:02:22.152Z,97187.47
2019-03-28T18:07:19.326Z,97191.77
2019-03-28T18:12:16.363Z,97204.01
2019-03-28T18:17:13.450Z,97214.77
2019-03-28T18:22:10.400Z,97221.96
2019-03-28T18:27:07.483Z,97227.52
2019-03-28T18:32:04.488Z,97233.94
2019-03-28T18:37:08.708Z,97231.27
2019-03-28T18:42:05.699Z,97239.33
2019-03-28T18:47:02.844Z,97232.74
2019-03-28T18:51:59.930Z,97239.73
2019-03-28T18:56:57.038Z,97234.49
2019-03-28T19:01:54.135Z,97238.28
2019-03-28T19:06:52.610Z,97240.13
2019-03-28T19:11:49.657Z,97250.56
2019-03-28T19:16:48.311Z,97245.33
2019-03-28T19:21:45.584Z,97252.45
2019-03-28T19:26:42.877Z,97252.07
2019-03-28T19:31:40.129Z,97258.89
2019-03-28T19:36:37.560Z,97267.87
2019-03-28T19:41:34.627Z,97260.69
2019-03-28T19:46:32.207Z,97261.80
2019-03-28T19:51:29.787Z,97275.69
2019-03-28T19:56:26.969Z,97272.37
2019-03-28T20:01:24.105Z,97274.72
2019-03-28T20:06:22.688Z,97277.14
2019-03-28T20:11:20.785Z,97271.08
2019-03-28T20:16:17.930Z,97266.63
2019-03-28T20:21:15.057Z,97287.75
2019-03-28T20:26:12.475Z,97295.37
2019-03-28T20:31:09.633Z,97288.13
2019-03-28T20:36:35.511Z,97286.67
2019-03-28T20:41:05.585Z,97286.55
2019-03-28T20:46:02.980Z,97299.73
2019-03-28T20:51:03.294Z,97306.23
2019-03-28T20:55:59.155Z,97310.11
2019-03-28T21:00:56.137Z,97314.84
2019-03-28T21:05:53.251Z,97316.27
2019-03-28T21:10:50.317Z,97311.55
2019-03-28T21:15:48.668Z,97315.63
2019-03-28T21:20:45.645Z,97313.22
2019-03-28T21:25:42.682Z,97308.27
2019-03-28T21:30:47.138Z,97323.70
2019-03-28T21:35:39.206Z,97313.56
2019-03-28T21:40:36.613Z,97323.91
2019-03-28T21:45:34.169Z,97329.02
2019-03-28T21:50:31.248Z,97328.64
2019-03-28T21:55:28.378Z,97323.44
2019-03-28T22:00:25.537Z,97337.39
2019-03-28T22:05:22.662Z,97328.46
2019-03-28T22:10:19.698Z,97335.33
2019-03-28T22:15:16.737Z,97344.52
2019-03-28T22:20:15.137Z,97350.93
2019-03-28T22:25:12.123Z,97333.65
2019-03-28T22:30:09.619Z,97339.06
2019-03-28T22:35:06.893Z,97333.51
2019-03-28T22:40:06.574Z,97327.83
2019-03-28T22:45:07.074Z,97323.32
2019-03-28T22:50:07.154Z,97331.45
2019-03-28T22:55:08.057Z,97311.38
2019-03-28T23:00:09.149Z,97306.53
2019-03-28T23:05:07.355Z,97316.94
2019-03-28T23:10:07.222Z,97326.05
2019-03-28T23:15:06.735Z,97311.26
2019-03-28T23:20:07.866Z,97314.52
2019-03-28T23:25:05.595Z,97317.42
2019-03-28T23:30:05.861Z,97321.89
2019-03-28T23:35:03.567Z,97309.50
2019-03-28T23:40:00.635Z,97300.30
2019-03-28T23:44:58.251Z,97293.52
2019-03-28T23:49:55.321Z,97288.91
2019-03-28T23:54:52.808Z,97279.75
2019-03-28T23:59:49.937Z,97281.78
